sensor_id;sensor_type;location;lat;lon;timestamp;pressure;altitude;pressure_sealevel;temperature;humidity
43621;BME280;29213;50.770;7.298;2022-10-16T00:01:24;100462.25;;;12.48;67.79
43621;BME280;29213;50.770;7.298;2022-10-16T00:03:51;100471.28;;;12.47;67.62
43621;BME280;29213;50.770;7.298;2022-10-16T00:06:18;100418.78;;;12.15;67.65
43621;BME280;29213;50.770;7.298;2022-10-16T00:08:44;100292.09;;;11.33;67.95
43621;BME280;29213;50.770;7.298;2022-10-16T00:11:21;100473.47;;;12.43;67.70
43621;BME280;29213;50.770;7.298;2022-10-16T00:13:49;100476.97;;;12.43;67.67
43621;BME280;29213;50.770;7.298;2022-10-16T00:16:15;100482.13;;;12.45;67.66
43621;BME280;29213;50.770;7.298;2022-10-16T00:18:41;100447.00;;;12.33;67.89
43621;BME280;29213;50.770;7.298;2022-10-16T00:21:10;100429.63;;;12.14;67.80
43621;BME280;29213;50.770;7.298;2022-10-16T00:23:36;100452.59;;;12.23;67.95
43621;BME280;29213;50.770;7.298;2022-10-16T00:26:07;100340.50;;;11.45;67.98
43621;BME280;29213;50.770;7.298;2022-10-16T00:28:33;100457.94;;;12.23;67.95
43621;BME280;29213;50.770;7.298;2022-10-16T00:31:05;100388.50;;;11.76;67.99
43621;BME280;29213;50.770;7.298;2022-10-16T00:33:31;100499.34;;;12.42;67.93
43621;BME280;29213;50.770;7.298;2022-10-16T00:35:58;100495.03;;;12.41;67.93
43621;BME280;29213;50.770;7.298;2022-10-16T00:38:24;100491.03;;;12.37;67.96
43621;BME280;29213;50.770;7.298;2022-10-16T00:40:50;100478.03;;;12.34;68.06
43621;BME280;29213;50.770;7.298;2022-10-16T00:46:38;100404.13;;;11.80;67.92
43621;BME280;29213;50.770;7.298;2022-10-16T00:49:17;100489.25;;;12.29;67.83
43621;BME280;29213;50.770;7.298;2022-10-16T00:51:47;100448.72;;;12.02;67.87
43621;BME280;29213;50.770;7.298;2022-10-16T00:54:17;100373.47;;;11.52;67.78
43621;BME280;29213;50.770;7.298;2022-10-16T00:56:45;100457.03;;;12.08;67.84
43621;BME280;29213;50.770;7.298;2022-10-16T00:59:18;100457.56;;;12.03;68.05
43621;BME280;29213;50.770;7.298;2022-10-16T01:01:44;100426.97;;;11.82;68.06
43621;BME280;29213;50.770;7.298;2022-10-16T01:04:09;100491.63;;;12.24;68.11
43621;BME280;29213;50.770;7.298;2022-10-16T01:12:16;100414.66;;;11.73;68.03
43621;BME280;29213;50.770;7.298;2022-10-16T01:14:57;100398.34;;;11.68;67.99
43621;BME280;29213;50.770;7.298;2022-10-16T01:17:41;100429.34;;;11.77;68.02
43621;BME280;29213;50.770;7.298;2022-10-16T01:20:14;100444.81;;;11.82;67.99
43621;BME280;29213;50.770;7.298;2022-10-16T01:25:45;100498.69;;;12.17;67.88
43621;BME280;29213;50.770;7.298;2022-10-16T01:28:15;100453.63;;;11.90;67.77
43621;BME280;29213;50.770;7.298;2022-10-16T01:30:44;100403.94;;;11.58;67.73
43621;BME280;29213;50.770;7.298;2022-10-16T01:33:35;100485.44;;;12.00;67.82
43621;BME280;29213;50.770;7.298;2022-10-16T01:36:09;100468.47;;;11.85;67.67
43621;BME280;29213;50.770;7.298;2022-10-16T01:38:38;100506.56;;;12.10;67.46
43621;BME280;29213;50.770;7.298;2022-10-16T01:41:21;100493.13;;;11.95;67.60
43621;BME280;29213;50.770;7.298;2022-10-16T01:43:58;100459.16;;;11.81;67.68
43621;BME280;29213;50.770;7.298;2022-10-16T01:46:28;100412.78;;;11.50;67.59
43621;BME280;29213;50.770;7.298;2022-10-16T01:48:56;100467.06;;;11.74;67.66
43621;BME280;29213;50.770;7.298;2022-10-16T01:51:23;100473.56;;;11.71;67.80
43621;BME280;29213;50.770;7.298;2022-10-16T01:53:53;100451.75;;;11.59;67.52
43621;BME280;29213;50.770;7.298;2022-10-16T01:56:21;100416.69;;;11.39;67.41
43621;BME280;29213;50.770;7.298;2022-10-16T01:59:01;100463.09;;;11.61;67.36
43621;BME280;29213;50.770;7.298;2022-10-16T02:01:31;100503.88;;;11.79;67.35
43621;BME280;29213;50.770;7.298;2022-10-16T02:04:07;100482.59;;;11.62;67.39
43621;BME280;29213;50.770;7.298;2022-10-16T02:06:33;100500.72;;;11.75;67.40
43621;BME280;29213;50.770;7.298;2022-10-16T02:08:59;100480.09;;;11.60;67.19
43621;BME280;29213;50.770;7.298;2022-10-16T02:11:25;100456.47;;;11.49;67.27
43621;BME280;29213;50.770;7.298;2022-10-16T02:13:59;100507.38;;;11.79;67.17
43621;BME280;29213;50.770;7.298;2022-10-16T02:16:34;100504.88;;;11.77;67.24
43621;BME280;29213;50.770;7.298;2022-10-16T02:19:00;100505.03;;;11.76;67.32
43621;BME280;29213;50.770;7.298;2022-10-16T02:21:28;100461.19;;;11.39;67.23
43621;BME280;29213;50.770;7.298;2022-10-16T02:26:42;100525.75;;;11.74;67.61
43621;BME280;29213;50.770;7.298;2022-10-16T02:29:12;100521.38;;;11.73;67.59
43621;BME280;29213;50.770;7.298;2022-10-16T02:31:43;100527.72;;;11.72;67.55
43621;BME280;29213;50.770;7.298;2022-10-16T02:34:11;100521.75;;;11.70;67.47
43621;BME280;29213;50.770;7.298;2022-10-16T02:36:39;100495.63;;;11.57;67.67
43621;BME280;29213;50.770;7.298;2022-10-16T02:39:06;100441.59;;;11.23;67.74
43621;BME280;29213;50.770;7.298;2022-10-16T02:41:32;100454.72;;;11.25;67.76
43621;BME280;29213;50.770;7.298;2022-10-16T02:43:57;100508.09;;;11.56;68.06
43621;BME280;29213;50.770;7.298;2022-10-16T02:46:23;100501.34;;;11.45;67.75
43621;BME280;29213;50.770;7.298;2022-10-16T02:48:48;100533.75;;;11.66;67.77
43621;BME280;29213;50.770;7.298;2022-10-16T02:51:14;100404.38;;;10.81;67.79
43621;BME280;29213;50.770;7.298;2022-10-16T02:53:39;100513.50;;;11.48;67.61
43621;BME280;29213;50.770;7.298;2022-10-16T02:56:05;100517.97;;;11.56;67.92
43621;BME280;29213;50.770;7.298;2022-10-16T02:58:30;100482.88;;;11.35;67.99
43621;BME280;29213;50.770;7.298;2022-10-16T03:00:56;100446.44;;;11.11;68.00
43621;BME280;29213;50.770;7.298;2022-10-16T03:03:21;100528.44;;;11.66;68.24
43621;BME280;29213;50.770;7.298;2022-10-16T03:05:46;100503.50;;;11.42;68.10
43621;BME280;29213;50.770;7.298;2022-10-16T03:08:12;100499.66;;;11.44;68.28
43621;BME280;29213;50.770;7.298;2022-10-16T03:10:38;100448.09;;;11.12;68.08
43621;BME280;29213;50.770;7.298;2022-10-16T03:13:03;100514.47;;;11.55;68.36
43621;BME280;29213;50.770;7.298;2022-10-16T03:15:29;100485.66;;;11.42;68.40
43621;BME280;29213;50.770;7.298;2022-10-16T03:17:56;100529.28;;;11.66;68.26
43621;BME280;29213;50.770;7.298;2022-10-16T03:20:22;100520.25;;;11.67;68.32
43621;BME280;29213;50.770;7.298;2022-10-16T03:22:47;100465.22;;;11.34;68.29
43621;BME280;29213;50.770;7.298;2022-10-16T03:25:13;100504.63;;;11.56;68.72
43621;BME280;29213;50.770;7.298;2022-10-16T03:27:38;100521.81;;;11.53;69.15
43621;BME280;29213;50.770;7.298;2022-10-16T03:30:03;100482.72;;;11.29;68.87
43621;BME280;29213;50.770;7.298;2022-10-16T03:32:29;100449.28;;;11.09;68.91
43621;BME280;29213;50.770;7.298;2022-10-16T03:34:54;100451.78;;;11.11;68.90
43621;BME280;29213;50.770;7.298;2022-10-16T03:37:21;100522.81;;;11.52;69.01
43621;BME280;29213;50.770;7.298;2022-10-16T03:39:46;100508.84;;;11.42;68.85
43621;BME280;29213;50.770;7.298;2022-10-16T03:42:12;100468.25;;;11.23;69.07
43621;BME280;29213;50.770;7.298;2022-10-16T03:44:37;100426.13;;;11.10;68.91
43621;BME280;29213;50.770;7.298;2022-10-16T03:47:03;100513.44;;;11.65;69.00
43621;BME280;29213;50.770;7.298;2022-10-16T03:49:28;100501.16;;;11.47;68.99
43621;BME280;29213;50.770;7.298;2022-10-16T03:51:53;100521.75;;;11.70;69.14
43621;BME280;29213;50.770;7.298;2022-10-16T03:54:19;100499.63;;;11.53;68.90
43621;BME280;29213;50.770;7.298;2022-10-16T03:56:44;100458.56;;;11.30;69.01
43621;BME280;29213;50.770;7.298;2022-10-16T03:59:10;100462.50;;;11.43;68.79
43621;BME280;29213;50.770;7.298;2022-10-16T04:01:35;100457.88;;;11.36;68.75
43621;BME280;29213;50.770;7.298;2022-10-16T04:04:00;100525.22;;;11.79;68.93
43621;BME280;29213;50.770;7.298;2022-10-16T04:06:26;100519.59;;;11.65;68.95
43621;BME280;29213;50.770;7.298;2022-10-16T04:08:51;100534.06;;;11.71;68.81
43621;BME280;29213;50.770;7.298;2022-10-16T04:11:17;100548.03;;;11.81;69.19
43621;BME280;29213;50.770;7.298;2022-10-16T04:13:42;100473.06;;;11.28;68.94
43621;BME280;29213;50.770;7.298;2022-10-16T04:16:08;100543.56;;;11.73;69.04
43621;BME280;29213;50.770;7.298;2022-10-16T04:18:34;100472.38;;;11.26;68.89
43621;BME280;29213;50.770;7.298;2022-10-16T04:21:04;100571.69;;;11.84;69.03
43621;BME280;29213;50.770;7.298;2022-10-16T04:23:30;100567.84;;;11.87;68.89
43621;BME280;29213;50.770;7.298;2022-10-16T04:25:56;100577.56;;;11.88;69.00
43621;BME280;29213;50.770;7.298;2022-10-16T04:28:21;100513.81;;;11.45;69.12
43621;BME280;29213;50.770;7.298;2022-10-16T04:30:47;100506.00;;;11.43;69.40
43621;BME280;29213;50.770;7.298;2022-10-16T04:33:12;100486.50;;;11.43;69.55
43621;BME280;29213;50.770;7.298;2022-10-16T04:35:38;100532.75;;;11.67;69.73
43621;BME280;29213;50.770;7.298;2022-10-16T04:38:04;100529.78;;;11.61;69.75
43621;BME280;29213;50.770;7.298;2022-10-16T04:40:29;100537.44;;;11.65;69.58
43621;BME280;29213;50.770;7.298;2022-10-16T04:42:58;100522.66;;;11.45;69.50
43621;BME280;29213;50.770;7.298;2022-10-16T04:45:23;100505.16;;;11.43;69.41
43621;BME280;29213;50.770;7.298;2022-10-16T04:47:49;100541.75;;;11.66;69.48
43621;BME280;29213;50.770;7.298;2022-10-16T04:50:14;100582.69;;;11.89;69.75
43621;BME280;29213;50.770;7.298;2022-10-16T04:52:40;100520.31;;;11.50;69.38
43621;BME280;29213;50.770;7.298;2022-10-16T04:55:05;100551.56;;;11.73;69.14
43621;BME280;29213;50.770;7.298;2022-10-16T04:57:31;100598.06;;;11.96;69.28
43621;BME280;29213;50.770;7.298;2022-10-16T04:59:58;100570.25;;;11.73;69.51
43621;BME280;29213;50.770;7.298;2022-10-16T05:02:24;100542.13;;;11.62;69.50
43621;BME280;29213;50.770;7.298;2022-10-16T05:04:49;100588.03;;;11.98;69.62
43621;BME280;29213;50.770;7.298;2022-10-16T05:07:14;100535.78;;;11.63;69.42
43621;BME280;29213;50.770;7.298;2022-10-16T05:09:40;100516.97;;;11.57;69.38
43621;BME280;29213;50.770;7.298;2022-10-16T05:12:06;100599.03;;;12.03;69.43
43621;BME280;29213;50.770;7.298;2022-10-16T05:14:31;100567.06;;;11.78;69.37
43621;BME280;29213;50.770;7.298;2022-10-16T05:16:57;100568.44;;;11.74;69.23
43621;BME280;29213;50.770;7.298;2022-10-16T05:19:22;100515.16;;;11.49;69.33
43621;BME280;29213;50.770;7.298;2022-10-16T05:21:47;100550.13;;;11.62;69.42
43621;BME280;29213;50.770;7.298;2022-10-16T05:24:13;100524.81;;;11.50;69.45
43621;BME280;29213;50.770;7.298;2022-10-16T05:26:39;100566.25;;;11.77;69.46
43621;BME280;29213;50.770;7.298;2022-10-16T05:29:04;100548.06;;;11.73;69.44
43621;BME280;29213;50.770;7.298;2022-10-16T05:31:29;100567.06;;;11.78;69.94
43621;BME280;29213;50.770;7.298;2022-10-16T05:33:59;100600.38;;;11.99;70.13
43621;BME280;29213;50.770;7.298;2022-10-16T05:36:25;100584.53;;;11.89;69.80
43621;BME280;29213;50.770;7.298;2022-10-16T05:38:50;100542.13;;;11.62;69.84
43621;BME280;29213;50.770;7.298;2022-10-16T05:41:16;100551.91;;;11.70;69.55
43621;BME280;29213;50.770;7.298;2022-10-16T05:43:47;100543.28;;;11.60;69.58
43621;BME280;29213;50.770;7.298;2022-10-16T05:46:12;100587.03;;;11.90;69.52
43621;BME280;29213;50.770;7.298;2022-10-16T05:48:38;100605.97;;;12.12;69.65
43621;BME280;29213;50.770;7.298;2022-10-16T05:51:05;100591.03;;;12.03;69.50
43621;BME280;29213;50.770;7.298;2022-10-16T05:53:33;100621.03;;;12.13;69.53
43621;BME280;29213;50.770;7.298;2022-10-16T05:55:59;100616.72;;;12.04;69.50
43621;BME280;29213;50.770;7.298;2022-10-16T05:58:28;100621.41;;;12.02;69.48
43621;BME280;29213;50.770;7.298;2022-10-16T06:01:00;100550.13;;;11.62;69.42
43621;BME280;29213;50.770;7.298;2022-10-16T06:03:26;100521.50;;;11.40;69.36
43621;BME280;29213;50.770;7.298;2022-10-16T06:05:52;100610.56;;;11.95;69.35
43621;BME280;29213;50.770;7.298;2022-10-16T06:08:19;100619.91;;;11.99;69.43
43621;BME280;29213;50.770;7.298;2022-10-16T06:10:45;100648.84;;;12.19;69.46
43621;BME280;29213;50.770;7.298;2022-10-16T06:13:11;100601.56;;;11.88;69.38
43621;BME280;29213;50.770;7.298;2022-10-16T06:15:38;100630.38;;;12.09;69.31
43621;BME280;29213;50.770;7.298;2022-10-16T06:18:05;100528.38;;;11.34;69.27
43621;BME280;29213;50.770;7.298;2022-10-16T06:20:30;100609.38;;;11.89;69.37
43621;BME280;29213;50.770;7.298;2022-10-16T06:22:56;100586.41;;;11.80;69.50
43621;BME280;29213;50.770;7.298;2022-10-16T06:25:22;100525.53;;;11.35;69.47
43621;BME280;29213;50.770;7.298;2022-10-16T06:27:47;100611.06;;;11.90;69.68
43621;BME280;29213;50.770;7.298;2022-10-16T06:30:13;100635.44;;;11.96;69.51
43621;BME280;29213;50.770;7.298;2022-10-16T06:32:38;100617.06;;;11.84;69.49
43621;BME280;29213;50.770;7.298;2022-10-16T06:35:04;100669.56;;;12.17;69.61
43621;BME280;29213;50.770;7.298;2022-10-16T06:37:29;100688.88;;;12.27;69.47
43621;BME280;29213;50.770;7.298;2022-10-16T06:39:54;100692.03;;;12.31;69.62
43621;BME280;29213;50.770;7.298;2022-10-16T06:42:20;100670.38;;;12.17;69.59
43621;BME280;29213;50.770;7.298;2022-10-16T06:44:45;100697.00;;;12.34;69.83
43621;BME280;29213;50.770;7.298;2022-10-16T06:47:10;100668.06;;;12.14;69.48
43621;BME280;29213;50.770;7.298;2022-10-16T06:49:36;100667.38;;;12.12;69.49
43621;BME280;29213;50.770;7.298;2022-10-16T06:52:02;100664.06;;;12.10;69.40
43621;BME280;29213;50.770;7.298;2022-10-16T06:54:28;100659.09;;;11.99;69.36
43621;BME280;29213;50.770;7.298;2022-10-16T06:56:54;100719.53;;;12.40;69.36
43621;BME280;29213;50.770;7.298;2022-10-16T06:59:20;100673.25;;;12.08;69.43
43621;BME280;29213;50.770;7.298;2022-10-16T07:01:46;100743.03;;;12.45;69.50
43621;BME280;29213;50.770;7.298;2022-10-16T07:04:12;100747.38;;;12.46;69.37
43621;BME280;29213;50.770;7.298;2022-10-16T07:06:37;100712.56;;;12.30;69.32
43621;BME280;29213;50.770;7.298;2022-10-16T07:09:06;100692.03;;;12.31;69.41
43621;BME280;29213;50.770;7.298;2022-10-16T07:11:34;100731.34;;;12.54;69.43
43621;BME280;29213;50.770;7.298;2022-10-16T07:14:00;100696.22;;;12.25;69.31
43621;BME280;29213;50.770;7.298;2022-10-16T07:16:28;100729.69;;;12.45;69.42
43621;BME280;29213;50.770;7.298;2022-10-16T07:18:54;100743.91;;;12.45;69.50
43621;BME280;29213;50.770;7.298;2022-10-16T07:21:25;100775.41;;;12.58;69.49
43621;BME280;29213;50.770;7.298;2022-10-16T07:23:53;100743.59;;;12.32;69.56
43621;BME280;29213;50.770;7.298;2022-10-16T07:26:18;100782.06;;;12.62;69.66
43621;BME280;29213;50.770;7.298;2022-10-16T07:28:44;100779.03;;;12.65;69.58
43621;BME280;29213;50.770;7.298;2022-10-16T07:31:13;100782.72;;;12.64;69.81
43621;BME280;29213;50.770;7.298;2022-10-16T07:33:39;100772.75;;;12.58;69.93
43621;BME280;29213;50.770;7.298;2022-10-16T07:36:05;100768.25;;;12.50;69.80
43621;BME280;29213;50.770;7.298;2022-10-16T07:38:31;100744.09;;;12.35;69.74
43621;BME280;29213;50.770;7.298;2022-10-16T07:41:01;100778.25;;;12.56;69.79
43621;BME280;29213;50.770;7.298;2022-10-16T07:43:27;100787.59;;;12.61;69.70
43621;BME280;29213;50.770;7.298;2022-10-16T07:45:53;100807.41;;;12.75;69.82
43621;BME280;29213;50.770;7.298;2022-10-16T07:48:19;100795.72;;;12.67;69.90
43621;BME280;29213;50.770;7.298;2022-10-16T07:50:45;100790.22;;;12.69;69.83
43621;BME280;29213;50.770;7.298;2022-10-16T07:53:11;100780.56;;;12.60;70.35
43621;BME280;29213;50.770;7.298;2022-10-16T07:55:37;100818.84;;;12.92;70.24
43621;BME280;29213;50.770;7.298;2022-10-16T07:58:02;100724.41;;;12.36;70.18
43621;BME280;29213;50.770;7.298;2022-10-16T08:00:28;100755.22;;;12.55;70.11
43621;BME280;29213;50.770;7.298;2022-10-16T08:02:53;100764.34;;;12.61;69.84
43621;BME280;29213;50.770;7.298;2022-10-16T08:05:19;100842.34;;;13.13;70.24
43621;BME280;29213;50.770;7.298;2022-10-16T08:07:48;100840.13;;;13.25;69.32
43621;BME280;29213;50.770;7.298;2022-10-16T08:10:18;100788.75;;;13.06;68.48
43621;BME280;29213;50.770;7.298;2022-10-16T08:12:44;100770.34;;;13.12;67.85
43621;BME280;29213;50.770;7.298;2022-10-16T08:15:09;100809.25;;;13.46;67.53
43621;BME280;29213;50.770;7.298;2022-10-16T08:17:35;100859.69;;;13.81;67.54
43621;BME280;29213;50.770;7.298;2022-10-16T08:20:00;100854.84;;;13.76;68.16
43621;BME280;29213;50.770;7.298;2022-10-16T08:22:27;100816.72;;;13.50;68.49
43621;BME280;29213;50.770;7.298;2022-10-16T08:24:52;100821.78;;;13.45;68.58
43621;BME280;29213;50.770;7.298;2022-10-16T08:27:18;100812.94;;;13.45;68.64
43621;BME280;29213;50.770;7.298;2022-10-16T08:29:43;100817.56;;;13.51;68.55
43621;BME280;29213;50.770;7.298;2022-10-16T08:32:09;100871.69;;;13.85;68.68
43621;BME280;29213;50.770;7.298;2022-10-16T08:34:34;100867.00;;;13.87;68.48
43621;BME280;29213;50.770;7.298;2022-10-16T08:36:59;100866.78;;;13.88;68.52
43621;BME280;29213;50.770;7.298;2022-10-16T08:39:25;100846.34;;;13.72;68.63
43621;BME280;29213;50.770;7.298;2022-10-16T08:42:01;100881.91;;;14.05;68.75
43621;BME280;29213;50.770;7.298;2022-10-16T08:44:35;100877.91;;;14.09;68.54
43621;BME280;29213;50.770;7.298;2022-10-16T08:47:18;100867.28;;;13.92;68.67
43621;BME280;29213;50.770;7.298;2022-10-16T08:49:56;100881.31;;;13.94;68.85
43621;BME280;29213;50.770;7.298;2022-10-16T08:52:22;100889.28;;;14.02;68.40
43621;BME280;29213;50.770;7.298;2022-10-16T08:54:55;100886.44;;;14.04;68.54
43621;BME280;29213;50.770;7.298;2022-10-16T08:57:22;100781.25;;;13.33;68.46
43621;BME280;29213;50.770;7.298;2022-10-16T08:59:49;100757.75;;;13.20;68.25
43621;BME280;29213;50.770;7.298;2022-10-16T09:02:23;100896.13;;;14.05;68.05
43621;BME280;29213;50.770;7.298;2022-10-16T09:05:08;100898.78;;;14.05;68.09
43621;BME280;29213;50.770;7.298;2022-10-16T09:10:57;100863.03;;;13.74;68.05
43621;BME280;29213;50.770;7.298;2022-10-16T09:13:29;100910.03;;;14.09;68.02
43621;BME280;29213;50.770;7.298;2022-10-16T09:16:11;100820.72;;;13.55;67.58
43621;BME280;29213;50.770;7.298;2022-10-16T09:18:51;100913.34;;;14.11;67.80
43621;BME280;29213;50.770;7.298;2022-10-16T09:21:30;100912.34;;;14.12;67.63
43621;BME280;29213;50.770;7.298;2022-10-16T09:23:59;100867.00;;;13.87;67.63
43621;BME280;29213;50.770;7.298;2022-10-16T09:26:29;100835.34;;;13.67;67.43
43621;BME280;29213;50.770;7.298;2022-10-16T09:28:55;100867.47;;;13.90;67.58
43621;BME280;29213;50.770;7.298;2022-10-16T09:31:22;100918.94;;;14.24;67.26
43621;BME280;29213;50.770;7.298;2022-10-16T09:33:58;100923.94;;;14.27;67.44
43621;BME280;29213;50.770;7.298;2022-10-16T09:36:26;100908.13;;;14.18;67.14
43621;BME280;29213;50.770;7.298;2022-10-16T09:39:04;100927.63;;;14.26;67.41
43621;BME280;29213;50.770;7.298;2022-10-16T09:41:30;100858.97;;;13.87;66.81
43621;BME280;29213;50.770;7.298;2022-10-16T09:43:57;100921.44;;;14.26;65.96
43621;BME280;29213;50.770;7.298;2022-10-16T09:48:50;100915.44;;;14.24;66.34
43621;BME280;29213;50.770;7.298;2022-10-16T09:51:31;100855.91;;;13.90;66.52
43621;BME280;29213;50.770;7.298;2022-10-16T09:54:02;100872.88;;;14.06;66.32
43621;BME280;29213;50.770;7.298;2022-10-16T09:56:37;100864.13;;;13.88;66.39
43621;BME280;29213;50.770;7.298;2022-10-16T09:59:19;100810.72;;;13.72;66.31
43621;BME280;29213;50.770;7.298;2022-10-16T10:01:48;100796.56;;;13.63;65.49
43621;BME280;29213;50.770;7.298;2022-10-16T10:04:14;100905.41;;;14.41;65.17
43621;BME280;29213;50.770;7.298;2022-10-16T10:06:51;100884.78;;;14.26;65.30
43621;BME280;29213;50.770;7.298;2022-10-16T10:09:24;100908.19;;;14.48;65.03
43621;BME280;29213;50.770;7.298;2022-10-16T10:11:51;100910.31;;;14.52;64.17
43621;BME280;29213;50.770;7.298;2022-10-16T10:14:19;100898.09;;;14.50;65.15
43621;BME280;29213;50.770;7.298;2022-10-16T10:16:45;100902.94;;;14.54;65.02
43621;BME280;29213;50.770;7.298;2022-10-16T10:19:22;100901.28;;;14.53;63.72
43621;BME280;29213;50.770;7.298;2022-10-16T10:21:49;100904.94;;;14.52;63.08
43621;BME280;29213;50.770;7.298;2022-10-16T10:24:17;100895.63;;;14.48;63.37
43621;BME280;29213;50.770;7.298;2022-10-16T10:32:23;100862.97;;;14.45;62.19
43621;BME280;29213;50.770;7.298;2022-10-16T10:35:14;100898.78;;;14.67;62.39
43621;BME280;29213;50.770;7.298;2022-10-16T10:38:00;100901.38;;;14.75;61.55
43621;BME280;29213;50.770;7.298;2022-10-16T10:40:43;100836.00;;;14.46;62.36
43621;BME280;29213;50.770;7.298;2022-10-16T10:46:05;100881.59;;;14.76;62.17
43621;BME280;29213;50.770;7.298;2022-10-16T10:52:19;100884.47;;;14.90;62.04
43621;BME280;29213;50.770;7.298;2022-10-16T10:54:54;100895.75;;;15.00;61.82
43621;BME280;29213;50.770;7.298;2022-10-16T10:57:53;100767.94;;;14.25;62.27
43621;BME280;29213;50.770;7.298;2022-10-16T11:05:49;100822.16;;;14.58;60.80
43621;BME280;29213;50.770;7.298;2022-10-16T11:08:43;100870.25;;;15.04;59.52
43621;BME280;29213;50.770;7.298;2022-10-16T11:11:19;100783.38;;;14.53;59.71
43621;BME280;29213;50.770;7.298;2022-10-16T11:13:55;100901.38;;;15.35;58.93
43621;BME280;29213;50.770;7.298;2022-10-16T11:16:28;100816.88;;;14.79;59.77
43621;BME280;29213;50.770;7.298;2022-10-16T11:21:51;100872.91;;;15.19;59.84
43621;BME280;29213;50.770;7.298;2022-10-16T11:24:25;100837.50;;;14.94;59.75
43621;BME280;29213;50.770;7.298;2022-10-16T11:26:58;100894.34;;;15.34;59.63
43621;BME280;29213;50.770;7.298;2022-10-16T11:29:29;100852.19;;;15.13;59.51
43621;BME280;29213;50.770;7.298;2022-10-16T11:32:10;100885.25;;;15.35;58.87
43621;BME280;29213;50.770;7.298;2022-10-16T11:34:48;100905.44;;;15.46;59.47
43621;BME280;29213;50.770;7.298;2022-10-16T11:37:40;100908.56;;;15.50;59.21
43621;BME280;29213;50.770;7.298;2022-10-16T11:40:22;100857.16;;;15.16;59.43
43621;BME280;29213;50.770;7.298;2022-10-16T11:42:58;100778.16;;;14.67;59.35
43621;BME280;29213;50.770;7.298;2022-10-16T11:45:33;100908.81;;;15.55;59.54
43621;BME280;29213;50.770;7.298;2022-10-16T11:50:57;100867.69;;;15.33;59.21
43621;BME280;29213;50.770;7.298;2022-10-16T11:53:39;100878.88;;;15.36;59.03
43621;BME280;29213;50.770;7.298;2022-10-16T11:56:19;100918.41;;;15.65;58.99
43621;BME280;29213;50.770;7.298;2022-10-16T11:59:02;100917.41;;;15.66;59.05
43621;BME280;29213;50.770;7.298;2022-10-16T12:04:03;100919.97;;;15.74;59.46
43621;BME280;29213;50.770;7.298;2022-10-16T12:06:34;100921.88;;;15.80;57.95
43621;BME280;29213;50.770;7.298;2022-10-16T12:09:02;100800.22;;;15.14;57.41
43621;BME280;29213;50.770;7.298;2022-10-16T12:16:37;100856.53;;;15.51;56.92
43621;BME280;29213;50.770;7.298;2022-10-16T12:19:14;100872.50;;;15.59;56.94
43621;BME280;29213;50.770;7.298;2022-10-16T12:21:41;100918.59;;;16.00;56.68
43621;BME280;29213;50.770;7.298;2022-10-16T12:24:21;100913.88;;;16.02;56.42
43621;BME280;29213;50.770;7.298;2022-10-16T12:26:48;100876.56;;;15.70;56.99
43621;BME280;29213;50.770;7.298;2022-10-16T12:29:37;100918.16;;;15.96;57.33
43621;BME280;29213;50.770;7.298;2022-10-16T12:32:05;100882.94;;;15.69;57.67
43621;BME280;29213;50.770;7.298;2022-10-16T12:34:59;100910.13;;;15.81;57.84
43621;BME280;29213;50.770;7.298;2022-10-16T12:37:28;100893.13;;;15.74;57.96
43621;BME280;29213;50.770;7.298;2022-10-16T12:39:57;100795.38;;;15.25;58.12
43621;BME280;29213;50.770;7.298;2022-10-16T12:42:33;100920.91;;;16.03;58.23
43621;BME280;29213;50.770;7.298;2022-10-16T12:44:59;100907.22;;;15.98;57.99
43621;BME280;29213;50.770;7.298;2022-10-16T12:49:57;100872.06;;;15.77;57.32
43621;BME280;29213;50.770;7.298;2022-10-16T12:52:35;100870.88;;;15.80;57.11
43621;BME280;29213;50.770;7.298;2022-10-16T12:55:01;100848.88;;;15.70;56.08
43621;BME280;29213;50.770;7.298;2022-10-16T12:57:56;100918.59;;;16.22;56.71
43621;BME280;29213;50.770;7.298;2022-10-16T13:03:28;100900.66;;;16.29;55.90
43621;BME280;29213;50.770;7.298;2022-10-16T13:06:42;100899.25;;;16.33;56.68
43621;BME280;29213;50.770;7.298;2022-10-16T13:14:36;100906.81;;;16.51;56.28
43621;BME280;29213;50.770;7.298;2022-10-16T13:19:45;100898.50;;;16.46;55.01
43621;BME280;29213;50.770;7.298;2022-10-16T13:27:55;100882.28;;;16.33;56.75
43621;BME280;29213;50.770;7.298;2022-10-16T13:30:43;100874.13;;;16.19;56.54
43621;BME280;29213;50.770;7.298;2022-10-16T13:35:35;100900.56;;;16.44;57.84
43621;BME280;29213;50.770;7.298;2022-10-16T13:38:05;100920.13;;;16.60;58.40
43621;BME280;29213;50.770;7.298;2022-10-16T13:40:31;100920.19;;;16.66;57.63
43621;BME280;29213;50.770;7.298;2022-10-16T13:42:59;100876.47;;;16.29;57.69
43621;BME280;29213;50.770;7.298;2022-10-16T13:45:25;100937.72;;;16.62;57.65
43621;BME280;29213;50.770;7.298;2022-10-16T13:48:10;100926.13;;;16.62;57.82
43621;BME280;29213;50.770;7.298;2022-10-16T13:50:37;100869.22;;;16.29;58.02
43621;BME280;29213;50.770;7.298;2022-10-16T13:53:09;100912.19;;;16.51;58.14
43621;BME280;29213;50.770;7.298;2022-10-16T13:55:38;100886.19;;;16.30;57.77
43621;BME280;29213;50.770;7.298;2022-10-16T13:58:13;100922.38;;;16.56;57.68
43621;BME280;29213;50.770;7.298;2022-10-16T14:00:41;100922.16;;;16.58;58.30
43621;BME280;29213;50.770;7.298;2022-10-16T14:03:18;100883.31;;;16.32;58.14
43621;BME280;29213;50.770;7.298;2022-10-16T14:05:55;100815.56;;;15.86;58.38
43621;BME280;29213;50.770;7.298;2022-10-16T14:08:23;100900.31;;;16.39;58.96
43621;BME280;29213;50.770;7.298;2022-10-16T14:10:53;100874.38;;;16.24;58.31
43621;BME280;29213;50.770;7.298;2022-10-16T14:13:23;100913.81;;;16.46;58.48
43621;BME280;29213;50.770;7.298;2022-10-16T14:15:51;100883.78;;;16.13;58.88